createdAt,value
2022-07-30T00:09:37.405Z,4.0114
2022-07-30T00:14:51.883Z,4.0211
2022-07-30T00:20:04.800Z,4.0114
2022-07-30T00:30:30.167Z,4.0114
2022-07-30T00:35:42.319Z,4.0114
2022-07-30T00:40:54.731Z,4.0114
2022-07-30T00:46:08.338Z,4.0162
2022-07-30T00:51:20.423Z,4.0211
2022-07-30T00:56:33.029Z,4.0114
2022-07-30T01:01:46.989Z,4.0162
2022-07-30T01:07:01.086Z,4.0162
2022-07-30T01:17:25.571Z,4.0114
2022-07-30T01:22:38.192Z,4.0114
2022-07-30T01:27:50.509Z,4.0114
2022-07-30T01:33:02.928Z,4.0114
2022-07-30T01:43:28.018Z,4.0114
2022-07-30T01:48:40.780Z,4.0114
2022-07-30T01:53:53.128Z,4.0114
2022-07-30T01:59:05.708Z,4.0065
2022-07-30T02:09:30.672Z,4.0065
2022-07-30T02:14:43.179Z,4.0065
2022-07-30T02:19:55.720Z,4.0065
2022-07-30T02:25:07.869Z,4.0065
2022-07-30T02:30:20.081Z,4.0065
2022-07-30T02:35:32.330Z,4.0065
2022-07-30T02:40:44.449Z,4.0065
2022-07-30T02:45:57.400Z,4.0114
2022-07-30T02:51:09.520Z,4.0114
2022-07-30T02:56:21.759Z,4.0065
2022-07-30T03:01:34.425Z,4.0065
2022-07-30T03:06:47.440Z,4.0065
2022-07-30T03:11:59.291Z,4.0065
2022-07-30T03:22:23.322Z,4.0065
2022-07-30T03:27:35.570Z,4.0065
2022-07-30T03:32:47.659Z,4.0065
2022-07-30T03:38:00.078Z,4.0016
2022-07-30T03:43:34.888Z,4.0065
2022-07-30T03:48:43.787Z,4.0065
2022-07-30T03:53:56.479Z,4.0114
2022-07-30T03:59:09.290Z,4.0114
2022-07-30T04:04:21.570Z,4.0114
2022-07-30T04:09:34.720Z,4.0065
2022-07-30T04:14:46.448Z,4.0016
2022-07-30T04:25:25.380Z,4.0016
2022-07-30T04:30:34.490Z,4.0016
2022-07-30T04:35:53.122Z,4.0065
2022-07-30T04:41:05.899Z,4.0016
2022-07-30T04:46:18.379Z,4.0016
2022-07-30T04:51:30.372Z,4.0016
2022-07-30T04:57:03.436Z,4.0016
2022-07-30T05:02:13.307Z,4.0114
2022-07-30T05:07:25.269Z,4.0114
2022-07-30T05:12:37.581Z,4.0016
2022-07-30T05:23:01.950Z,4.0114
2022-07-30T05:28:14.330Z,4.0065
2022-07-30T05:33:44.079Z,4.0065
2022-07-30T05:44:05.241Z,4.0065
2022-07-30T05:49:18.216Z,4.0016
2022-07-30T05:54:30.220Z,4.0016
2022-07-30T05:59:42.482Z,4.0065
2022-07-30T06:04:55.354Z,4.0065
2022-07-30T06:10:08.349Z,4.0065
2022-07-30T06:15:27.220Z,4.0114
2022-07-30T06:25:56.123Z,4.0114
2022-07-30T06:31:08.997Z,4.0114
2022-07-30T06:36:21.402Z,4.0065
2022-07-30T06:41:33.794Z,4.0114
2022-07-30T06:51:58.542Z,4.0114
2022-07-30T06:57:11.043Z,4.0114
2022-07-30T07:02:23.822Z,4.0065
2022-07-30T07:08:00.253Z,4.0065
2022-07-30T07:13:08.993Z,4.0065
2022-07-30T07:18:21.763Z,4.0114
2022-07-30T07:23:43.413Z,4.0114
2022-07-30T07:28:53.493Z,4.0065
2022-07-30T07:34:05.993Z,4.0114
2022-07-30T07:39:18.512Z,4.0065
2022-07-30T07:44:31.134Z,4.0114
2022-07-30T07:54:59.514Z,4.0114
2022-07-30T08:00:15.323Z,4.0114
2022-07-30T08:06:15.063Z,4.0114
2022-07-30T08:16:34.929Z,4.0162
2022-07-30T08:27:00.563Z,4.0065
2022-07-30T08:32:12.354Z,4.0114
2022-07-30T08:37:25.003Z,4.0065
2022-07-30T08:42:37.403Z,4.0114
2022-07-30T08:53:02.493Z,4.0065
2022-07-30T08:58:19.274Z,4.0114
2022-07-30T09:03:33.723Z,4.0065
2022-07-30T09:13:59.124Z,4.0114
2022-07-30T09:19:11.742Z,4.0114
2022-07-30T09:24:23.992Z,4.0211
2022-07-30T09:29:36.521Z,4.0114
2022-07-30T09:40:01.713Z,4.0114
2022-07-30T09:45:14.164Z,4.0114
2022-07-30T09:50:31.990Z,4.0162
2022-07-30T10:01:01.767Z,4.0211
2022-07-30T10:06:17.272Z,4.0114
2022-07-30T10:11:36.094Z,4.0114
2022-07-30T10:22:04.261Z,4.0162
2022-07-30T10:27:23.189Z,4.0162
2022-07-30T10:37:59.979Z,4.0162
2022-07-30T10:43:18.960Z,4.026
2022-07-30T10:48:31.959Z,4.0162
2022-07-30T10:58:56.942Z,4.0211
2022-07-30T11:04:11.009Z,4.0211
2022-07-30T11:09:27.540Z,4.026
2022-07-30T11:20:03.179Z,4.0211
2022-07-30T11:30:29.529Z,4.187
2022-07-30T11:35:41.729Z,4.1968
2022-07-30T11:51:16.830Z,4.1822
2022-07-30T11:56:30.199Z,4.1968
2022-07-30T12:06:57.440Z,4.1382
2022-07-30T12:12:13.100Z,4.1138
2022-07-30T12:17:25.570Z,4.1041
2022-07-30T12:22:39.014Z,4.1334
2022-07-30T12:27:53.522Z,4.1187
2022-07-30T12:33:05.570Z,4.1138
2022-07-30T12:43:28.980Z,4.1041
2022-07-30T12:48:43.230Z,4.1041
2022-07-30T12:53:55.507Z,4.0992
2022-07-30T12:59:09.142Z,4.1382
2022-07-30T13:04:21.492Z,4.148
2022-07-30T13:09:33.898Z,4.1822
2022-07-30T13:25:09.872Z,4.148
2022-07-30T13:46:01.208Z,4.1285
2022-07-30T13:56:25.432Z,4.1285
2022-07-30T14:12:02.959Z,4.1138
2022-07-30T14:17:15.383Z,4.1138
2022-07-30T14:27:38.013Z,4.109
2022-07-30T14:33:05.289Z,4.109
2022-07-30T14:38:14.964Z,4.1431
2022-07-30T14:43:27.682Z,4.1578
2022-07-30T15:04:11.134Z,4.1724
2022-07-30T15:09:23.763Z,4.1675
2022-07-30T15:30:11.274Z,4.1431
2022-07-30T15:35:23.273Z,4.1382
2022-07-30T15:40:35.681Z,4.1382
2022-07-30T15:50:58.544Z,4.1285
2022-07-30T15:56:11.565Z,4.1285
2022-07-30T16:16:58.134Z,4.1285
2022-07-30T16:43:30.973Z,4.1138
2022-07-30T16:59:14.872Z,4.1431
2022-07-30T17:09:38.306Z,4.1578
2022-07-30T17:20:01.217Z,4.1724
2022-07-30T17:25:13.747Z,4.1724
2022-07-30T17:35:36.356Z,4.187
2022-07-30T17:51:11.581Z,4.1724
2022-07-30T17:56:28.297Z,4.1675
2022-07-30T18:12:07.510Z,4.148
2022-07-30T18:17:19.246Z,4.1431
2022-07-30T18:27:42.084Z,4.148
2022-07-30T18:32:54.444Z,4.1382
2022-07-30T18:38:06.765Z,4.1334
2022-07-30T18:43:18.907Z,4.1334
2022-07-30T18:48:31.081Z,4.1285
2022-07-30T18:58:55.673Z,4.1236
2022-07-30T19:04:07.774Z,4.1236
2022-07-30T19:09:20.005Z,4.1187
2022-07-30T19:19:42.441Z,4.1138
2022-07-30T19:24:54.541Z,4.1138
2022-07-30T19:30:06.831Z,4.109
2022-07-30T19:35:19.050Z,4.109
2022-07-30T19:40:31.822Z,4.1041
2022-07-30T19:51:04.557Z,4.109
2022-07-30T19:56:16.087Z,4.0992
2022-07-30T20:01:42.349Z,4.0992
2022-07-30T20:06:51.956Z,4.0894
2022-07-30T20:12:07.977Z,4.0894
2022-07-30T20:17:22.853Z,4.0894
2022-07-30T20:22:35.877Z,4.0846
2022-07-30T20:27:51.104Z,4.0846
2022-07-30T20:33:07.660Z,4.0846
2022-07-30T20:38:22.717Z,4.0894
2022-07-30T20:43:55.717Z,4.0846
2022-07-30T20:49:07.613Z,4.0797
2022-07-30T20:54:24.938Z,4.0797
2022-07-30T20:59:44.368Z,4.0748
2022-07-30T21:05:00.682Z,4.0797
2022-07-30T21:10:17.170Z,4.0846
2022-07-30T21:15:33.644Z,4.0699
2022-07-30T21:20:48.621Z,4.0699
2022-07-30T21:26:14.509Z,4.0699
2022-07-30T21:32:04.915Z,4.0699
2022-07-30T21:37:16.693Z,4.065
2022-07-30T21:42:33.257Z,4.065
2022-07-30T21:47:51.896Z,4.0699
2022-07-30T21:53:04.681Z,4.065
2022-07-30T21:58:27.513Z,4.065
2022-07-30T22:04:09.900Z,4.0602
2022-07-30T22:09:35.199Z,4.0602
2022-07-30T23:12:30.039Z,4.0602
2022-07-30T23:17:36.329Z,3.9967
2022-07-30T23:22:47.663Z,4.0016
2022-07-30T23:27:59.560Z,4.0016
2022-07-30T23:33:11.562Z,4.0065
2022-07-30T23:38:23.589Z,4.0065
2022-07-30T23:43:35.828Z,4.0016
2022-07-30T23:48:48.329Z,4.0065
2022-07-30T23:54:00.239Z,4.0016
2022-07-30T23:59:13.359Z,4.0065
